Terminal Aerodrome Forecast
Issued by NWS Spokane, WA

Home | Current Version | Previous Version | Text Only | Print | Product List | Glossary On
Versions: 1 2 3 4 5 6 7 8 9 10 11 12 13
000
FTUS46 KOTX 160522
TAFLWS
TAF
KLWS 160522Z 1606/1706 23007KT P6SM SCT080 OVC150
     FM161000 VRB03KT P6SM SCT080 OVC120
     FM161500 VRB04KT P6SM VCSH BKN070 OVC080
     FM161800 34006KT P6SM -SHRA SCT040 OVC070
     FM170000 VRB06KT P6SM BKN060 OVC070=

USA.gov is the U.S. government's official web portal to all federal, state and local government web resources and services.